KCFJ

Crawfordsville Municipal Airport

Crawfordsville, Indiana, USA
METAR KCFJ 230815Z AUTO 01005KT 10SM CLR 14/14 A3010 RMK AO2 T01360136
Observed Flight Rules
May-23 @ 08:15 UTC (21 minutes ago) Visual Flight Rules
Wind Visibility Clouds
10° at 5 knots 10 miles
  • Clear skies
Temperatures Readings
Current 14°C / 57°F
Dewpoint 14°C / 57°F
Humidity 100%
Altimeter 30.1" Hg
Pressure 1019 hPa
Elevation 244
METAR KCFJ 230815Z AUTO 01005KT 10SM CLR 14/14 A3010 RMK AO2 T01360136
Observed Flight Rules
May-23 @ 08:15 UTC
(21 minutes ago)
VFR
Wind Visibility
10° at 5 knots 10 miles
Clouds
  • Clear skies
Temperature Dewpoint
14°C / 57°F 14°C / 57°F
Humidity Altimeter Pressure
100% 30.1" Hg 1019 hPa